sensor_id;sensor_type;location;lat;lon;timestamp;pressure;altitude;pressure_sealevel;temperature;humidity
71976;BME280;68326;52.124;5.424;2023-04-07T00:01:11;101480.50;;;8.59;100.00
71976;BME280;68326;52.124;5.424;2023-04-07T00:03:37;101482.31;;;8.57;100.00
71976;BME280;68326;52.124;5.424;2023-04-07T00:06:06;101483.16;;;8.57;100.00
71976;BME280;68326;52.124;5.424;2023-04-07T00:08:32;101483.19;;;8.56;100.00
71976;BME280;68326;52.124;5.424;2023-04-07T00:10:59;101485.94;;;8.51;100.00
71976;BME280;68326;52.124;5.424;2023-04-07T00:13:26;101483.44;;;8.48;100.00
71976;BME280;68326;52.124;5.424;2023-04-07T00:15:53;101480.78;;;8.50;100.00
71976;BME280;68326;52.124;5.424;2023-04-07T00:18:20;101479.28;;;8.43;100.00
71976;BME280;68326;52.124;5.424;2023-04-07T00:20:46;101481.06;;;8.41;100.00
71976;BME280;68326;52.124;5.424;2023-04-07T00:23:13;101482.78;;;8.40;100.00
71976;BME280;68326;52.124;5.424;2023-04-07T00:25:39;101482.88;;;8.37;100.00
71976;BME280;68326;52.124;5.424;2023-04-07T00:28:06;101484.59;;;8.38;100.00
71976;BME280;68326;52.124;5.424;2023-04-07T00:30:32;101484.56;;;8.40;100.00
71976;BME280;68326;52.124;5.424;2023-04-07T00:32:59;101488.03;;;8.38;100.00
71976;BME280;68326;52.124;5.424;2023-04-07T00:35:25;101488.97;;;8.36;100.00
71976;BME280;68326;52.124;5.424;2023-04-07T00:37:52;101493.22;;;8.38;100.00
71976;BME280;68326;52.124;5.424;2023-04-07T00:40:18;101483.75;;;8.37;100.00
71976;BME280;68326;52.124;5.424;2023-04-07T00:42:45;101485.47;;;8.37;100.00
71976;BME280;68326;52.124;5.424;2023-04-07T00:45:11;101484.56;;;8.40;100.00
71976;BME280;68326;52.124;5.424;2023-04-07T00:47:38;101476.84;;;8.36;100.00
71976;BME280;68326;52.124;5.424;2023-04-07T00:50:05;101482.94;;;8.35;100.00
71976;BME280;68326;52.124;5.424;2023-04-07T00:52:32;101485.56;;;8.34;100.00
71976;BME280;68326;52.124;5.424;2023-04-07T00:54:59;101484.81;;;8.30;100.00
71976;BME280;68326;52.124;5.424;2023-04-07T00:57:25;101481.41;;;8.28;100.00
71976;BME280;68326;52.124;5.424;2023-04-07T00:59:53;101485.72;;;8.29;100.00
71976;BME280;68326;52.124;5.424;2023-04-07T01:02:31;101489.19;;;8.28;100.00
71976;BME280;68326;52.124;5.424;2023-04-07T01:05:12;101486.59;;;8.28;100.00
71976;BME280;68326;52.124;5.424;2023-04-07T01:10:45;101484.72;;;8.33;100.00
71976;BME280;68326;52.124;5.424;2023-04-07T01:13:41;101487.50;;;8.27;100.00
71976;BME280;68326;52.124;5.424;2023-04-07T01:16:12;101486.72;;;8.25;100.00
71976;BME280;68326;52.124;5.424;2023-04-07T01:18:43;101486.66;;;8.27;100.00
71976;BME280;68326;52.124;5.424;2023-04-07T01:21:14;101482.38;;;8.26;100.00
71976;BME280;68326;52.124;5.424;2023-04-07T01:24:11;101481.38;;;8.30;100.00
71976;BME280;68326;52.124;5.424;2023-04-07T01:26:45;101486.59;;;8.28;100.00
71976;BME280;68326;52.124;5.424;2023-04-07T01:29:35;101489.13;;;8.31;100.00
71976;BME280;68326;52.124;5.424;2023-04-07T01:32:04;101489.16;;;8.30;100.00
71976;BME280;68326;52.124;5.424;2023-04-07T01:34:34;101490.09;;;8.27;100.00
71976;BME280;68326;52.124;5.424;2023-04-07T01:37:02;101485.63;;;8.32;100.00
71976;BME280;68326;52.124;5.424;2023-04-07T01:39:31;101493.31;;;8.35;100.00
71976;BME280;68326;52.124;5.424;2023-04-07T01:41:59;101493.31;;;8.35;100.00
71976;BME280;68326;52.124;5.424;2023-04-07T01:44:27;101487.22;;;8.36;100.00
71976;BME280;68326;52.124;5.424;2023-04-07T01:46:55;101488.06;;;8.37;100.00
71976;BME280;68326;52.124;5.424;2023-04-07T01:49:24;101487.22;;;8.36;100.00
71976;BME280;68326;52.124;5.424;2023-04-07T01:51:51;101484.72;;;8.33;100.00
71976;BME280;68326;52.124;5.424;2023-04-07T01:54:18;101487.38;;;8.32;100.00
71976;BME280;68326;52.124;5.424;2023-04-07T01:56:45;101491.59;;;8.34;100.00
71976;BME280;68326;52.124;5.424;2023-04-07T01:59:12;101484.72;;;8.33;100.00
71976;BME280;68326;52.124;5.424;2023-04-07T02:01:38;101489.13;;;8.31;100.00
71976;BME280;68326;52.124;5.424;2023-04-07T02:04:15;101491.59;;;8.34;100.00
71976;BME280;68326;52.124;5.424;2023-04-07T02:06:52;101490.63;;;8.38;100.00
71976;BME280;68326;52.124;5.424;2023-04-07T02:09:21;101494.19;;;8.34;100.00
71976;BME280;68326;52.124;5.424;2023-04-07T02:11:49;101486.41;;;8.34;100.00
71976;BME280;68326;52.124;5.424;2023-04-07T02:14:18;101488.13;;;8.35;100.00
71976;BME280;68326;52.124;5.424;2023-04-07T02:16:47;101487.97;;;8.40;100.00
71976;BME280;68326;52.124;5.424;2023-04-07T02:19:15;101494.91;;;8.40;100.00
71976;BME280;68326;52.124;5.424;2023-04-07T02:21:42;101489.78;;;8.38;100.00
71976;BME280;68326;52.124;5.424;2023-04-07T02:24:10;101487.13;;;8.40;100.00
71976;BME280;68326;52.124;5.424;2023-04-07T02:26:37;101490.66;;;8.37;100.00
71976;BME280;68326;52.124;5.424;2023-04-07T02:29:03;101496.59;;;8.42;100.00
71976;BME280;68326;52.124;5.424;2023-04-07T02:31:30;101499.09;;;8.45;100.00
71976;BME280;68326;52.124;5.424;2023-04-07T02:33:57;101499.00;;;8.48;100.00
71976;BME280;68326;52.124;5.424;2023-04-07T02:36:23;101493.06;;;8.45;100.00
71976;BME280;68326;52.124;5.424;2023-04-07T02:38:51;101490.47;;;8.45;100.00
71976;BME280;68326;52.124;5.424;2023-04-07T02:41:18;101492.09;;;8.47;100.00
71976;BME280;68326;52.124;5.424;2023-04-07T02:43:44;101490.34;;;8.48;100.00
71976;BME280;68326;52.124;5.424;2023-04-07T02:46:11;101496.44;;;8.47;100.00
71976;BME280;68326;52.124;5.424;2023-04-07T02:48:40;101486.91;;;8.47;100.00
71976;BME280;68326;52.124;5.424;2023-04-07T02:51:06;101493.91;;;8.45;100.00
71976;BME280;68326;52.124;5.424;2023-04-07T02:53:32;101500.84;;;8.45;100.00
71976;BME280;68326;52.124;5.424;2023-04-07T02:55:59;101499.03;;;8.47;100.00
71976;BME280;68326;52.124;5.424;2023-04-07T02:58:25;101497.25;;;8.49;100.00
71976;BME280;68326;52.124;5.424;2023-04-07T03:00:52;101491.38;;;8.44;100.00
71976;BME280;68326;52.124;5.424;2023-04-07T03:03:19;101502.47;;;8.47;100.00
71976;BME280;68326;52.124;5.424;2023-04-07T03:05:45;101499.81;;;8.50;100.00
71976;BME280;68326;52.124;5.424;2023-04-07T03:08:12;101500.69;;;8.49;100.00
71976;BME280;68326;52.124;5.424;2023-04-07T03:10:38;101507.72;;;8.46;100.00
71976;BME280;68326;52.124;5.424;2023-04-07T03:13:05;101502.63;;;8.43;100.00
71976;BME280;68326;52.124;5.424;2023-04-07T03:15:33;101501.81;;;8.41;100.00
71976;BME280;68326;52.124;5.424;2023-04-07T03:17:59;101501.81;;;8.41;100.00
71976;BME280;68326;52.124;5.424;2023-04-07T03:20:26;101500.16;;;8.38;100.00
71976;BME280;68326;52.124;5.424;2023-04-07T03:22:53;101498.53;;;8.34;100.00
71976;BME280;68326;52.124;5.424;2023-04-07T03:25:19;101498.56;;;8.32;100.00
71976;BME280;68326;52.124;5.424;2023-04-07T03:27:46;101497.63;;;8.35;100.00
71976;BME280;68326;52.124;5.424;2023-04-07T03:30:13;101502.81;;;8.35;100.00
71976;BME280;68326;52.124;5.424;2023-04-07T03:32:39;101498.56;;;8.32;100.00
71976;BME280;68326;52.124;5.424;2023-04-07T03:35:06;101496.78;;;8.34;100.00
71976;BME280;68326;52.124;5.424;2023-04-07T03:37:33;101510.56;;;8.36;100.00
71976;BME280;68326;52.124;5.424;2023-04-07T03:39:59;101502.78;;;8.36;100.00
71976;BME280;68326;52.124;5.424;2023-04-07T03:42:26;101508.78;;;8.38;100.00
71976;BME280;68326;52.124;5.424;2023-04-07T03:44:52;101506.94;;;8.44;100.00
71976;BME280;68326;52.124;5.424;2023-04-07T03:47:19;101513.00;;;8.43;100.00
71976;BME280;68326;52.124;5.424;2023-04-07T03:49:45;101512.13;;;8.44;100.00
71976;BME280;68326;52.124;5.424;2023-04-07T03:52:12;101509.53;;;8.44;100.00
71976;BME280;68326;52.124;5.424;2023-04-07T03:54:38;101500.88;;;8.43;100.00
71976;BME280;68326;52.124;5.424;2023-04-07T03:57:05;101506.03;;;8.45;100.00
71976;BME280;68326;52.124;5.424;2023-04-07T03:59:31;101505.25;;;8.41;100.00
71976;BME280;68326;52.124;5.424;2023-04-07T04:01:58;101502.66;;;8.41;100.00
71976;BME280;68326;52.124;5.424;2023-04-07T04:04:24;101506.19;;;8.38;100.00
71976;BME280;68326;52.124;5.424;2023-04-07T04:06:51;101508.78;;;8.38;100.00
71976;BME280;68326;52.124;5.424;2023-04-07T04:09:17;101504.44;;;8.39;100.00
71976;BME280;68326;52.124;5.424;2023-04-07T04:11:44;101507.84;;;8.41;100.00
71976;BME280;68326;52.124;5.424;2023-04-07T04:14:10;101507.00;;;8.39;100.00
71976;BME280;68326;52.124;5.424;2023-04-07T04:16:37;101509.59;;;8.41;100.00
71976;BME280;68326;52.124;5.424;2023-04-07T04:19:04;101517.31;;;8.44;100.00
71976;BME280;68326;52.124;5.424;2023-04-07T04:21:30;101508.72;;;8.40;100.00
71976;BME280;68326;52.124;5.424;2023-04-07T04:23:57;101515.72;;;8.38;100.00
71976;BME280;68326;52.124;5.424;2023-04-07T04:26:23;101515.84;;;8.33;100.00
71976;BME280;68326;52.124;5.424;2023-04-07T04:28:51;101517.50;;;8.36;100.00
71976;BME280;68326;52.124;5.424;2023-04-07T04:31:18;101523.53;;;8.36;100.00
71976;BME280;68326;52.124;5.424;2023-04-07T04:33:45;101527.84;;;8.37;100.00
71976;BME280;68326;52.124;5.424;2023-04-07T04:36:11;101526.09;;;8.38;100.00
71976;BME280;68326;52.124;5.424;2023-04-07T04:38:38;101527.03;;;8.35;100.00
71976;BME280;68326;52.124;5.424;2023-04-07T04:41:05;101530.50;;;8.34;100.00
71976;BME280;68326;52.124;5.424;2023-04-07T04:43:32;101527.84;;;8.37;100.00
71976;BME280;68326;52.124;5.424;2023-04-07T04:45:58;101538.13;;;8.39;100.00
71976;BME280;68326;52.124;5.424;2023-04-07T04:48:25;101541.56;;;8.41;100.00
71976;BME280;68326;52.124;5.424;2023-04-07T04:50:51;101550.13;;;8.45;100.00
71976;BME280;68326;52.124;5.424;2023-04-07T04:53:17;101550.22;;;8.40;100.00
71976;BME280;68326;52.124;5.424;2023-04-07T04:55:44;101548.50;;;8.41;100.00
71976;BME280;68326;52.124;5.424;2023-04-07T04:58:13;101547.63;;;8.40;100.00
71976;BME280;68326;52.124;5.424;2023-04-07T05:00:40;101554.56;;;8.40;100.00
71976;BME280;68326;52.124;5.424;2023-04-07T05:03:06;101552.06;;;8.36;100.00
71976;BME280;68326;52.124;5.424;2023-04-07T05:05:33;101549.50;;;8.35;100.00
71976;BME280;68326;52.124;5.424;2023-04-07T05:07:59;101553.81;;;8.36;100.00
71976;BME280;68326;52.124;5.424;2023-04-07T05:10:26;101557.34;;;8.33;100.00
71976;BME280;68326;52.124;5.424;2023-04-07T05:12:52;101547.91;;;8.31;100.00
71976;BME280;68326;52.124;5.424;2023-04-07T05:15:19;101559.13;;;8.31;100.00
71976;BME280;68326;52.124;5.424;2023-04-07T05:17:45;101559.03;;;8.34;100.00
71976;BME280;68326;52.124;5.424;2023-04-07T05:20:16;101562.53;;;8.33;100.00
71976;BME280;68326;52.124;5.424;2023-04-07T05:22:42;101553.94;;;8.31;100.00
71976;BME280;68326;52.124;5.424;2023-04-07T05:25:09;101554.78;;;8.32;100.00
71976;BME280;68326;52.124;5.424;2023-04-07T05:27:36;101559.03;;;8.34;100.00
71976;BME280;68326;52.124;5.424;2023-04-07T05:30:02;101566.84;;;8.33;100.00
71976;BME280;68326;52.124;5.424;2023-04-07T05:32:29;101567.72;;;8.33;100.00
71976;BME280;68326;52.124;5.424;2023-04-07T05:34:55;101565.13;;;8.33;100.00
71976;BME280;68326;52.124;5.424;2023-04-07T05:37:22;101571.16;;;8.34;100.00
71976;BME280;68326;52.124;5.424;2023-04-07T05:39:48;101567.59;;;8.36;100.00
71976;BME280;68326;52.124;5.424;2023-04-07T05:42:15;101568.53;;;8.35;100.00
71976;BME280;68326;52.124;5.424;2023-04-07T05:44:41;101570.31;;;8.33;100.00
71976;BME280;68326;52.124;5.424;2023-04-07T05:47:08;101569.41;;;8.34;100.00
71976;BME280;68326;52.124;5.424;2023-04-07T05:49:34;101570.34;;;8.32;100.00
71976;BME280;68326;52.124;5.424;2023-04-07T05:52:01;101576.47;;;8.29;100.00
71976;BME280;68326;52.124;5.424;2023-04-07T05:54:31;101575.56;;;8.30;100.00
71976;BME280;68326;52.124;5.424;2023-04-07T05:56:57;101575.56;;;8.30;100.00
71976;BME280;68326;52.124;5.424;2023-04-07T05:59:24;101579.81;;;8.33;100.00
71976;BME280;68326;52.124;5.424;2023-04-07T06:01:50;101578.09;;;8.33;100.00
71976;BME280;68326;52.124;5.424;2023-04-07T06:04:17;101582.41;;;8.33;100.00
71976;BME280;68326;52.124;5.424;2023-04-07T06:06:43;101580.72;;;8.32;100.00
71976;BME280;68326;52.124;5.424;2023-04-07T06:09:10;101590.31;;;8.28;100.00
71976;BME280;68326;52.124;5.424;2023-04-07T06:11:36;101595.63;;;8.24;100.00
71976;BME280;68326;52.124;5.424;2023-04-07T06:14:03;101589.47;;;8.28;100.00
71976;BME280;68326;52.124;5.424;2023-04-07T06:16:29;101594.69;;;8.26;100.00
71976;BME280;68326;52.124;5.424;2023-04-07T06:18:56;101601.56;;;8.29;100.00
71976;BME280;68326;52.124;5.424;2023-04-07T06:21:22;101592.84;;;8.31;100.00
71976;BME280;68326;52.124;5.424;2023-04-07T06:23:50;101600.50;;;8.34;100.00
71976;BME280;68326;52.124;5.424;2023-04-07T06:26:17;101593.78;;;8.29;100.00
71976;BME280;68326;52.124;5.424;2023-04-07T06:28:43;101610.16;;;8.31;100.00
71976;BME280;68326;52.124;5.424;2023-04-07T06:31:09;101612.84;;;8.26;100.00
71976;BME280;68326;52.124;5.424;2023-04-07T06:33:36;101616.31;;;8.27;100.00
71976;BME280;68326;52.124;5.424;2023-04-07T06:36:03;101613.72;;;8.27;100.00
71976;BME280;68326;52.124;5.424;2023-04-07T06:38:29;101611.03;;;8.30;100.00
71976;BME280;68326;52.124;5.424;2023-04-07T06:40:56;101609.25;;;8.32;100.00
71976;BME280;68326;52.124;5.424;2023-04-07T06:43:23;101616.06;;;8.34;100.00
71976;BME280;68326;52.124;5.424;2023-04-07T06:45:50;101609.03;;;8.40;100.00
71976;BME280;68326;52.124;5.424;2023-04-07T06:48:16;101620.25;;;8.42;100.00
71976;BME280;68326;52.124;5.424;2023-04-07T06:50:47;101611.41;;;8.47;100.00
71976;BME280;68326;52.124;5.424;2023-04-07T06:53:14;101625.28;;;8.46;100.00
71976;BME280;68326;52.124;5.424;2023-04-07T06:55:40;101628.56;;;8.53;100.00
71976;BME280;68326;52.124;5.424;2023-04-07T06:58:07;101630.13;;;8.59;100.00
71976;BME280;68326;52.124;5.424;2023-04-07T07:00:35;101624.03;;;8.60;100.00
71976;BME280;68326;52.124;5.424;2023-04-07T07:03:02;101631.72;;;8.63;100.00
71976;BME280;68326;52.124;5.424;2023-04-07T07:05:29;101630.06;;;8.60;100.00
71976;BME280;68326;52.124;5.424;2023-04-07T07:07:56;101633.56;;;8.59;100.00
71976;BME280;68326;52.124;5.424;2023-04-07T07:10:22;101636.03;;;8.64;100.00
71976;BME280;68326;52.124;5.424;2023-04-07T07:12:50;101640.25;;;8.66;100.00
71976;BME280;68326;52.124;5.424;2023-04-07T07:15:17;101635.88;;;8.68;100.00
71976;BME280;68326;52.124;5.424;2023-04-07T07:17:43;101640.03;;;8.74;100.00
71976;BME280;68326;52.124;5.424;2023-04-07T07:20:10;101638.88;;;8.84;100.00
71976;BME280;68326;52.124;5.424;2023-04-07T07:22:36;101642.38;;;8.82;100.00
71976;BME280;68326;52.124;5.424;2023-04-07T07:25:03;101652.91;;;8.77;100.00
71976;BME280;68326;52.124;5.424;2023-04-07T07:27:30;101645.06;;;8.80;100.00
71976;BME280;68326;52.124;5.424;2023-04-07T07:29:57;101658.75;;;8.84;100.00
71976;BME280;68326;52.124;5.424;2023-04-07T07:32:23;101658.84;;;8.82;100.00
71976;BME280;68326;52.124;5.424;2023-04-07T07:34:50;101653.66;;;8.82;100.00
71976;BME280;68326;52.124;5.424;2023-04-07T07:37:16;101659.53;;;8.87;100.00
71976;BME280;68326;52.124;5.424;2023-04-07T07:39:43;101659.75;;;8.80;100.00
71976;BME280;68326;52.124;5.424;2023-04-07T07:42:12;101659.91;;;8.75;100.00
71976;BME280;68326;52.124;5.424;2023-04-07T07:44:38;101664.13;;;8.77;100.00
71976;BME280;68326;52.124;5.424;2023-04-07T07:47:05;101663.09;;;8.85;100.00
71976;BME280;68326;52.124;5.424;2023-04-07T07:49:31;101667.50;;;8.81;100.00
71976;BME280;68326;52.124;5.424;2023-04-07T07:51:58;101664.03;;;8.82;100.00
71976;BME280;68326;52.124;5.424;2023-04-07T07:54:25;101674.34;;;8.84;100.00
71976;BME280;68326;52.124;5.424;2023-04-07T07:56:51;101671.66;;;8.87;100.00
71976;BME280;68326;52.124;5.424;2023-04-07T07:59:18;101674.97;;;8.92;100.00
71976;BME280;68326;52.124;5.424;2023-04-07T08:01:44;101677.47;;;8.95;100.00
71976;BME280;68326;52.124;5.424;2023-04-07T08:04:11;101683.53;;;8.95;100.00
71976;BME280;68326;52.124;5.424;2023-04-07T08:06:37;101692.78;;;9.04;100.00
71976;BME280;68326;52.124;5.424;2023-04-07T08:09:04;101691.03;;;9.05;100.00
71976;BME280;68326;52.124;5.424;2023-04-07T08:11:31;101690.94;;;9.08;100.00
71976;BME280;68326;52.124;5.424;2023-04-07T08:13:57;101691.13;;;9.02;100.00
71976;BME280;68326;52.124;5.424;2023-04-07T08:16:24;101690.00;;;9.10;100.00
71976;BME280;68326;52.124;5.424;2023-04-07T08:18:52;101695.84;;;9.17;100.00
71976;BME280;68326;52.124;5.424;2023-04-07T08:21:18;101695.56;;;9.26;100.00
71976;BME280;68326;52.124;5.424;2023-04-07T08:23:46;101701.66;;;9.25;98.82
71976;BME280;68326;52.124;5.424;2023-04-07T08:26:13;101698.28;;;9.22;99.49
71976;BME280;68326;52.124;5.424;2023-04-07T08:28:39;101700.00;;;9.23;98.09
71976;BME280;68326;52.124;5.424;2023-04-07T08:31:06;101701.72;;;9.22;97.28
71976;BME280;68326;52.124;5.424;2023-04-07T08:33:33;101697.50;;;9.19;98.05
71976;BME280;68326;52.124;5.424;2023-04-07T08:35:59;101705.09;;;9.26;97.85
71976;BME280;68326;52.124;5.424;2023-04-07T08:38:26;101707.34;;;9.36;97.76
71976;BME280;68326;52.124;5.424;2023-04-07T08:40:59;101705.38;;;9.45;97.32
71976;BME280;68326;52.124;5.424;2023-04-07T08:43:28;101709.72;;;9.44;95.18
71976;BME280;68326;52.124;5.424;2023-04-07T08:45:56;101705.25;;;9.48;97.66
71976;BME280;68326;52.124;5.424;2023-04-07T08:48:23;101706.06;;;9.50;94.80
71976;BME280;68326;52.124;5.424;2023-04-07T08:50:52;101717.38;;;9.49;95.43
71976;BME280;68326;52.124;5.424;2023-04-07T08:53:23;101715.66;;;9.48;94.52
71976;BME280;68326;52.124;5.424;2023-04-07T08:55:54;101719.19;;;9.45;95.09
71976;BME280;68326;52.124;5.424;2023-04-07T08:58:21;101721.34;;;9.61;95.92
71976;BME280;68326;52.124;5.424;2023-04-07T09:00:48;101716.72;;;9.69;93.41
71976;BME280;68326;52.124;5.424;2023-04-07T09:03:16;101726.47;;;9.62;94.55
71976;BME280;68326;52.124;5.424;2023-04-07T09:05:44;101726.09;;;9.73;93.61
71976;BME280;68326;52.124;5.424;2023-04-07T09:08:11;101731.91;;;9.81;92.50
71976;BME280;68326;52.124;5.424;2023-04-07T09:10:38;101732.75;;;9.82;94.05
71976;BME280;68326;52.124;5.424;2023-04-07T09:13:06;101736.56;;;9.71;92.68
71976;BME280;68326;52.124;5.424;2023-04-07T09:15:33;101740.22;;;9.66;92.07
71976;BME280;68326;52.124;5.424;2023-04-07T09:18:03;101741.91;;;9.67;92.04
71976;BME280;68326;52.124;5.424;2023-04-07T09:23:30;101738.88;;;9.80;91.52
71976;BME280;68326;52.124;5.424;2023-04-07T09:26:18;101745.56;;;9.88;93.01
71976;BME280;68326;52.124;5.424;2023-04-07T09:28:51;101737.03;;;9.84;91.70
71976;BME280;68326;52.124;5.424;2023-04-07T09:31:18;101732.88;;;9.78;90.44
71976;BME280;68326;52.124;5.424;2023-04-07T09:33:48;101735.69;;;9.71;92.31
71976;BME280;68326;52.124;5.424;2023-04-07T09:36:15;101743.41;;;9.74;92.61
71976;BME280;68326;52.124;5.424;2023-04-07T09:38:43;101740.81;;;9.74;91.84
71976;BME280;68326;52.124;5.424;2023-04-07T09:41:12;101745.06;;;9.76;92.68
71976;BME280;68326;52.124;5.424;2023-04-07T09:43:41;101735.66;;;9.72;91.97
71976;BME280;68326;52.124;5.424;2023-04-07T09:46:15;101746.22;;;9.68;92.11
71976;BME280;68326;52.124;5.424;2023-04-07T09:48:44;101747.81;;;9.72;93.23
71976;BME280;68326;52.124;5.424;2023-04-07T09:51:12;101748.41;;;9.80;92.12
71976;BME280;68326;52.124;5.424;2023-04-07T09:53:49;101749.47;;;9.74;90.98
71976;BME280;68326;52.124;5.424;2023-04-07T09:56:19;101753.00;;;9.72;90.65
71976;BME280;68326;52.124;5.424;2023-04-07T09:58:49;101748.66;;;9.72;91.02
71976;BME280;68326;52.124;5.424;2023-04-07T10:01:20;101752.16;;;9.71;90.14
71976;BME280;68326;52.124;5.424;2023-04-07T10:03:47;101756.41;;;9.74;91.26
71976;BME280;68326;52.124;5.424;2023-04-07T10:06:16;101755.47;;;9.76;89.93
71976;BME280;68326;52.124;5.424;2023-04-07T10:08:43;101751.25;;;9.72;90.59
71976;BME280;68326;52.124;5.424;2023-04-07T10:11:09;101749.41;;;9.76;89.58
71976;BME280;68326;52.124;5.424;2023-04-07T10:13:38;101760.81;;;9.72;89.63
71976;BME280;68326;52.124;5.424;2023-04-07T10:16:06;101759.69;;;9.79;90.91
71976;BME280;68326;52.124;5.424;2023-04-07T10:18:34;101756.91;;;9.85;89.86
71976;BME280;68326;52.124;5.424;2023-04-07T10:21:03;101757.06;;;9.80;90.26
71976;BME280;68326;52.124;5.424;2023-04-07T10:23:42;101760.63;;;9.78;89.80
71976;BME280;68326;52.124;5.424;2023-04-07T10:26:14;101769.50;;;9.71;88.33
71976;BME280;68326;52.124;5.424;2023-04-07T10:28:45;101767.22;;;9.60;88.73
71976;BME280;68326;52.124;5.424;2023-04-07T10:31:14;101767.22;;;9.60;89.83
71976;BME280;68326;52.124;5.424;2023-04-07T10:33:46;101768.88;;;9.63;89.32
71976;BME280;68326;52.124;5.424;2023-04-07T10:36:15;101781.16;;;9.59;89.41
71976;BME280;68326;52.124;5.424;2023-04-07T10:41:39;101771.59;;;9.59;88.71
71976;BME280;68326;52.124;5.424;2023-04-07T10:44:08;101784.53;;;9.61;89.66
71976;BME280;68326;52.124;5.424;2023-04-07T10:49:11;101788.50;;;9.73;90.58
71976;BME280;68326;52.124;5.424;2023-04-07T10:51:38;101785.00;;;9.74;90.93
71976;BME280;68326;52.124;5.424;2023-04-07T10:54:21;101793.66;;;9.74;89.79
71976;BME280;68326;52.124;5.424;2023-04-07T10:57:08;101791.88;;;9.75;88.89
71976;BME280;68326;52.124;5.424;2023-04-07T10:59:37;101791.09;;;9.73;89.32
71976;BME280;68326;52.124;5.424;2023-04-07T11:04:41;101791.69;;;9.81;87.48
71976;BME280;68326;52.124;5.424;2023-04-07T11:07:09;101798.69;;;9.79;88.85
71976;BME280;68326;52.124;5.424;2023-04-07T11:09:36;101805.69;;;9.77;89.49
71976;BME280;68326;52.124;5.424;2023-04-07T11:12:03;101798.69;;;9.79;88.49
71976;BME280;68326;52.124;5.424;2023-04-07T11:14:33;101799.69;;;9.75;90.05
71976;BME280;68326;52.124;5.424;2023-04-07T11:17:02;101797.09;;;9.75;88.65
71976;BME280;68326;52.124;5.424;2023-04-07T11:19:29;101801.66;;;9.67;88.61
71976;BME280;68326;52.124;5.424;2023-04-07T11:22:13;101813.28;;;9.56;89.12
71976;BME280;68326;52.124;5.424;2023-04-07T11:24:55;101815.91;;;9.55;88.96
71976;BME280;68326;52.124;5.424;2023-04-07T11:27:22;101806.28;;;9.58;89.22
71976;BME280;68326;52.124;5.424;2023-04-07T11:29:48;101807.94;;;9.61;89.52
71976;BME280;68326;52.124;5.424;2023-04-07T11:32:21;101807.69;;;9.69;90.44
71976;BME280;68326;52.124;5.424;2023-04-07T11:34:51;101806.69;;;9.73;89.04
71976;BME280;68326;52.124;5.424;2023-04-07T11:37:22;101811.06;;;9.71;88.75
71976;BME280;68326;52.124;5.424;2023-04-07T11:39:53;101812.03;;;9.68;89.08
71976;BME280;68326;52.124;5.424;2023-04-07T11:42:35;101821.25;;;9.78;89.45
71976;BME280;68326;52.124;5.424;2023-04-07T11:45:03;101815.09;;;9.81;88.76
71976;BME280;68326;52.124;5.424;2023-04-07T11:47:37;101813.22;;;9.86;87.83
71976;BME280;68326;52.124;5.424;2023-04-07T11:50:04;101814.81;;;9.90;89.17
71976;BME280;68326;52.124;5.424;2023-04-07T11:52:41;101810.56;;;9.88;88.21
71976;BME280;68326;52.124;5.424;2023-04-07T11:55:21;101820.91;;;9.89;88.09
71976;BME280;68326;52.124;5.424;2023-04-07T11:57:50;101821.09;;;9.83;86.76
71976;BME280;68326;52.124;5.424;2023-04-07T12:00:18;101818.59;;;9.80;87.50
71976;BME280;68326;52.124;5.424;2023-04-07T12:02:45;101828.06;;;9.83;nan
71976;BME280;68326;52.124;5.424;2023-04-07T12:05:12;101828.00;;;9.84;87.66
71976;BME280;68326;52.124;5.424;2023-04-07T12:07:39;101827.25;;;9.80;87.96
71976;BME280;68326;52.124;5.424;2023-04-07T12:10:19;101834.06;;;9.85;87.77
71976;BME280;68326;52.124;5.424;2023-04-07T12:12:46;101836.69;;;9.83;88.01
71976;BME280;68326;52.124;5.424;2023-04-07T12:15:13;101843.59;;;9.84;87.81
71976;BME280;68326;52.124;5.424;2023-04-07T12:17:44;101842.47;;;9.93;87.44
71976;BME280;68326;52.124;5.424;2023-04-07T12:20:13;101846.59;;;9.98;87.62
71976;BME280;68326;52.124;5.424;2023-04-07T12:22:40;101849.94;;;10.04;87.52
71976;BME280;68326;52.124;5.424;2023-04-07T12:25:07;101847.31;;;10.04;87.16
71976;BME280;68326;52.124;5.424;2023-04-07T12:27:33;101846.34;;;10.08;87.41
71976;BME280;68326;52.124;5.424;2023-04-07T12:30:09;101849.44;;;10.19;87.06
71976;BME280;68326;52.124;5.424;2023-04-07T12:32:35;101857.88;;;10.26;85.93
71976;BME280;68326;52.124;5.424;2023-04-07T12:35:03;101857.13;;;10.22;85.74
71976;BME280;68326;52.124;5.424;2023-04-07T12:37:30;101854.66;;;10.17;85.57
71976;BME280;68326;52.124;5.424;2023-04-07T12:39:58;101858.03;;;10.21;85.30
71976;BME280;68326;52.124;5.424;2023-04-07T12:42:25;101861.47;;;10.21;83.90
71976;BME280;68326;52.124;5.424;2023-04-07T12:44:52;101855.66;;;10.13;84.94
71976;BME280;68326;52.124;5.424;2023-04-07T12:47:18;101858.41;;;10.09;84.32
71976;BME280;68326;52.124;5.424;2023-04-07T12:49:45;101856.59;;;10.12;86.02
71976;BME280;68326;52.124;5.424;2023-04-07T12:52:14;101864.28;;;10.15;84.68
71976;BME280;68326;52.124;5.424;2023-04-07T12:54:41;101859.69;;;10.24;85.12
71976;BME280;68326;52.124;5.424;2023-04-07T12:57:09;101865.84;;;10.21;84.16
71976;BME280;68326;52.124;5.424;2023-04-07T12:59:36;101865.00;;;10.20;84.32
71976;BME280;68326;52.124;5.424;2023-04-07T13:02:03;101869.19;;;10.25;84.88
71976;BME280;68326;52.124;5.424;2023-04-07T13:04:30;101871.72;;;10.26;83.52
71976;BME280;68326;52.124;5.424;2023-04-07T13:06:56;101875.06;;;10.31;84.55
71976;BME280;68326;52.124;5.424;2023-04-07T13:09:24;101874.09;;;10.35;83.47
71976;BME280;68326;52.124;5.424;2023-04-07T13:11:50;101874.22;;;10.31;83.49